首页
METAR-TAF:

METAR-TAF

机场 :

努瓦克肖特国际机场

努瓦克肖特, 毛里塔尼亚

纬度: 18-18-36N, 经度: 015-58-11W, 海拔: 3米

当前天气观测

该预报发布于45分钟前的06:30 UTC
风速13节,风向
温度 19°C
湿度 83%
气压 1011 hPa
能見度: 7000

METAR: GQNO 200630Z 35013KT 7000 NSC 19/16 Q1011 NOSIG

时间: 07:15 (07:15 UTC)

预报

该预报发布于2小时和15分钟前的05:00 UTC
预报有效从20日的 06点(UTC)到 21日的 12点(UTC)
风速12节,风向
能見度: 7000

TAF: GQNO 200500Z 2006/2112 36012KT 7000 NSC

超过4000个机场的气象观测和天气预报(METAR&TAF报告)。

可查询的气象台以黄色和红色小点在地图上表示。

将鼠标移到小点上方,可查看气象台名称。

然后点击查看天气观测和预报。

如需切换地图:点击带黑十字的绿色按钮放大地图;点击带横线的绿色按钮缩小地图;或者点击绿色箭头查看邻近地区的地图。


METAR-TAF: